Time;durP1;ratioP1;P1;durP2;ratioP2;P2;SDS_P1;SDS_P2;PMS_P1;PMS_P2;Temp;Humidity;BMP_temperature;BMP_pressure;BME280_temperature;BME280_humidity;BME280_pressure;Samples;Min_cycle;Max_cycle;Signal;HPM_P1;HPM_P2
2022/01/27 00:02:37;;;;;;;15.10;11.40;;;;;;;15.63;41.42;94098.13;4892015;29;20036;-86
2022/01/27 00:05:14;;;;;;;14.75;11.63;;;;;;;15.59;41.25;94098.31;4891273;29;20049;-85
2022/01/27 00:07:41;;;;;;;15.95;12.07;;;;;;;15.60;41.22;94109.97;4877138;29;20033;-85
2022/01/27 00:10:19;;;;;;;13.70;10.50;;;;;;;15.59;41.30;94092.88;4891094;29;20063;-85
2022/01/27 00:12:44;;;;;;;14.75;11.60;;;;;;;15.63;41.43;94115.22;4891420;29;20041;-85
2022/01/27 00:15:12;;;;;;;15.52;10.93;;;;;;;15.61;41.09;94109.50;4875513;29;20045;-85
2022/01/27 00:17:42;;;;;;;16.60;11.98;;;;;;;15.59;41.26;94105.75;4899896;29;20044;-85
2022/01/27 00:20:08;;;;;;;16.58;11.85;;;;;;;15.56;41.43;94099.28;4944205;28;20411;-85
2022/01/27 00:22:34;;;;;;;15.20;10.98;;;;;;;15.60;41.22;94093.63;4928781;28;20328;-85
2022/01/27 00:25:01;;;;;;;15.73;11.93;;;;;;;15.54;41.53;94085.34;4928990;28;20052;-85
2022/01/27 00:27:26;;;;;;;13.15;10.30;;;;;;;15.60;41.42;94078.00;4945619;28;20066;-85
2022/01/27 00:29:51;;;;;;;14.35;10.20;;;;;;;15.61;41.41;94078.75;4932775;28;20044;-84
2022/01/27 00:32:17;;;;;;;14.18;10.25;;;;;;;15.61;41.57;94076.78;4931722;28;20043;-85
2022/01/27 00:34:42;;;;;;;13.48;10.48;;;;;;;15.63;41.37;94079.03;4933949;28;20483;-85
2022/01/27 00:37:07;;;;;;;14.45;10.60;;;;;;;15.62;41.42;94077.53;4916320;28;20039;-85
2022/01/27 00:39:33;;;;;;;12.63;9.63;;;;;;;15.61;41.46;94086.94;4932433;28;20039;-85
2022/01/27 00:41:58;;;;;;;12.70;9.73;;;;;;;15.63;41.06;94093.41;4933456;28;20503;-85
2022/01/27 00:44:24;;;;;;;13.43;9.88;;;;;;;15.63;41.29;94087.97;4931464;28;20039;-85
2022/01/27 00:46:49;;;;;;;12.88;9.65;;;;;;;15.60;41.28;94088.91;4932488;28;20032;-84
2022/01/27 00:49:15;;;;;;;12.98;9.80;;;;;;;15.59;41.46;94079.22;4897826;29;20052;-86
2022/01/27 00:51:44;;;;;;;14.45;10.38;;;;;;;15.61;41.28;94095.88;4900363;29;20035;-86
2022/01/27 00:54:18;;;;;;;13.00;9.95;;;;;;;15.62;41.13;94083.75;4946839;28;20047;-85
2022/01/27 01:01:48;;;;;;;13.10;9.50;;;;;;;15.60;41.21;94085.44;4947546;28;20044;-85
2022/01/27 01:04:13;;;;;;;13.05;9.95;;;;;;;15.59;41.35;94084.69;4937386;28;20051;-84
2022/01/27 01:06:43;;;;;;;13.75;9.63;;;;;;;15.61;41.22;94079.50;4951023;28;20529;-85
2022/01/27 01:12:20;;;;;;;12.30;8.95;;;;;;;15.55;41.71;94073.22;4924362;29;20098;-85
2022/01/27 01:17:29;;;;;;;12.02;9.68;;;;;;;15.64;41.10;94084.00;4910914;29;20652;-85
2022/01/27 01:33:09;;;;;;;;;;;;;;;15.58;41.20;94077.00;4932346;29;20507;-84
2022/01/27 01:35:49;;;;;;;9.75;7.85;;;;;;;15.55;41.35;94072.47;4916132;29;20293;-85
2022/01/27 01:38:17;;;;;;;10.35;8.15;;;;;;;15.58;41.40;94069.59;4930110;29;20028;-85
2022/01/27 01:40:42;;;;;;;9.73;7.63;;;;;;;15.57;41.32;94087.16;4931070;29;20039;-85
2022/01/27 01:43:08;;;;;;;12.43;8.98;;;;;;;15.64;41.28;94078.56;4898972;29;20399;-85
2022/01/27 01:45:34;;;;;;;12.07;8.30;;;;;;;15.61;41.30;94071.34;4932802;29;20582;-85
2022/01/27 01:47:59;;;;;;;10.32;8.00;;;;;;;15.56;41.58;94079.47;4899474;29;20242;-85
2022/01/27 01:50:24;;;;;;;9.82;7.85;;;;;;;15.61;41.23;94067.84;4914562;29;20082;-85
2022/01/27 01:52:50;;;;;;;10.18;7.78;;;;;;;15.57;41.25;94068.09;4934524;28;20237;-85
2022/01/27 01:55:18;;;;;;;9.77;7.68;;;;;;;15.62;41.03;94074.81;4933752;28;20039;-85
2022/01/27 01:57:43;;;;;;;10.25;7.85;;;;;;;15.64;41.43;94075.09;4918942;29;20521;-85
2022/01/27 02:00:09;;;;;;;8.90;7.43;;;;;;;15.60;41.13;94069.84;4918105;28;20043;-85
2022/01/27 02:02:34;;;;;;;10.02;7.68;;;;;;;15.63;41.34;94068.88;4918134;29;20506;-85
2022/01/27 02:05:00;;;;;;;9.80;7.80;;;;;;;15.59;41.17;94073.78;4933823;28;20393;-85
2022/01/27 02:07:35;;;;;;;10.18;7.47;;;;;;;15.61;41.30;94056.97;4924139;28;20043;-85
2022/01/27 02:18:06;;;;;;;10.57;7.72;;;;;;;15.51;41.35;94048.16;4838782;29;20058;-85
2022/01/27 02:20:33;;;;;;;9.38;7.78;;;;;;;15.56;41.30;94050.25;4849407;29;20170;-85
2022/01/27 02:22:58;;;;;;;9.82;7.75;;;;;;;15.55;41.28;94056.88;4850808;29;20061;-85
2022/01/27 02:25:24;;;;;;;10.32;7.78;;;;;;;15.58;41.36;94058.69;4850457;29;20038;-84
2022/01/27 02:27:54;;;;;;;10.18;6.82;;;;;;;15.49;41.25;94055.31;4835992;29;20046;-85
2022/01/27 02:30:19;;;;;;;9.52;7.50;;;;;;;15.56;41.31;94055.69;4850557;29;20046;-85
2022/01/27 02:32:45;;;;;;;8.93;6.90;;;;;;;15.56;41.38;94057.66;4835714;29;20178;-85
2022/01/27 02:35:10;;;;;;;8.80;7.15;;;;;;;15.50;41.43;94054.84;4850175;29;20506;-85
2022/01/27 02:37:38;;;;;;;8.18;6.38;;;;;;;15.50;41.57;94063.00;4851123;29;20121;-85
2022/01/27 02:40:04;;;;;;;7.75;6.57;;;;;;;15.53;41.46;94058.59;4849850;29;20050;-85
2022/01/27 02:42:34;;;;;;;8.52;6.97;;;;;;;15.54;41.66;94062.81;4850283;29;20230;-85
2022/01/27 02:45:13;;;;;;;8.68;7.22;;;;;;;15.52;41.45;94060.56;4850117;29;20042;-85
2022/01/27 02:47:38;;;;;;;8.23;7.25;;;;;;;15.55;41.38;94069.75;4820564;29;20053;-85
2022/01/27 02:50:04;;;;;;;8.15;6.85;;;;;;;15.50;41.74;94060.28;4853219;29;20038;-85
2022/01/27 02:52:29;;;;;;;7.43;6.25;;;;;;;15.50;41.37;94068.44;4890007;29;20046;-85
2022/01/27 02:54:55;;;;;;;8.48;6.72;;;;;;;15.53;41.20;94058.59;4933221;28;20557;-85
2022/01/27 02:57:21;;;;;;;9.77;6.95;;;;;;;15.56;41.53;94046.75;4932913;28;20040;-85
2022/01/27 02:59:46;;;;;;;8.20;6.28;;;;;;;15.56;41.46;94046.75;4933283;29;20034;-85
2022/01/27 03:02:11;;;;;;;9.27;6.65;;;;;;;15.56;41.20;94041.31;4931043;28;20066;-85
2022/01/27 03:04:37;;;;;;;10.02;6.55;;;;;;;15.53;41.61;94045.72;4916755;29;20044;-85
2022/01/27 03:07:04;;;;;;;8.40;6.55;;;;;;;15.55;41.48;94034.34;4948548;28;20031;-85
2022/01/27 03:09:29;;;;;;;7.57;6.45;;;;;;;15.54;41.55;94038.28;4950192;28;20031;-84
2022/01/27 03:12:02;;;;;;;9.02;7.00;;;;;;;15.53;41.10;94042.22;4917121;29;20090;-85
2022/01/27 03:14:29;;;;;;;9.07;6.57;;;;;;;15.56;41.01;94033.13;4916747;28;20487;-85
2022/01/27 03:16:56;;;;;;;7.97;5.85;;;;;;;15.55;41.49;94023.44;4948611;28;20039;-85
2022/01/27 03:19:22;;;;;;;7.05;5.85;;;;;;;15.56;41.28;94016.78;4932412;28;20046;-85
2022/01/27 03:21:47;;;;;;;8.18;5.97;;;;;;;15.55;41.33;94010.56;4932579;28;20387;-84
2022/01/27 03:24:12;;;;;;;8.30;6.25;;;;;;;15.57;40.97;93996.50;4932094;28;20050;-85
2022/01/27 03:26:38;;;;;;;9.02;6.10;;;;;;;15.53;41.27;94004.84;4932727;28;20035;-85
2022/01/27 03:29:04;;;;;;;7.85;6.07;;;;;;;15.57;40.98;94010.84;4931994;28;20043;-85
2022/01/27 03:31:29;;;;;;;8.48;6.28;;;;;;;15.54;41.51;94011.78;4903768;29;20035;-85
2022/01/27 03:33:55;;;;;;;8.55;5.97;;;;;;;15.54;41.20;94009.06;4879002;29;20476;-85
2022/01/27 03:36:20;;;;;;;7.65;5.93;;;;;;;15.53;41.41;94018.47;4894176;29;20036;-85
2022/01/27 03:38:46;;;;;;;6.57;5.45;;;;;;;15.56;41.20;94019.50;4894589;29;20036;-85
2022/01/27 03:41:12;;;;;;;8.52;6.03;;;;;;;15.55;41.29;94017.97;4893923;29;20403;-85
2022/01/27 03:43:38;;;;;;;7.57;6.10;;;;;;;15.53;41.48;94014.97;4895020;29;20058;-85
2022/01/27 03:46:04;;;;;;;7.03;5.85;;;;;;;15.52;41.15;94013.47;4878709;29;20033;-85
2022/01/27 03:48:30;;;;;;;8.10;5.88;;;;;;;15.52;41.52;94003.34;4915157;29;20040;-85
2022/01/27 03:50:55;;;;;;;7.07;5.65;;;;;;;15.56;41.08;93995.75;4897662;29;20556;-85
2022/01/27 03:53:20;;;;;;;7.50;5.93;;;;;;;15.54;41.11;94000.13;4929076;28;20086;-85
2022/01/27 03:55:46;;;;;;;6.35;5.45;;;;;;;15.53;41.45;94002.09;4916116;29;20038;-85
2022/01/27 03:58:11;;;;;;;7.15;5.90;;;;;;;15.52;41.42;94011.50;4931931;28;20044;-85
2022/01/27 04:00:37;;;;;;;6.72;5.63;;;;;;;15.55;41.48;94009.81;4931949;28;20040;-85
2022/01/27 04:03:06;;;;;;;8.07;6.15;;;;;;;15.57;41.24;94010.09;4918208;28;20079;-85
2022/01/27 04:05:37;;;;;;;7.05;5.20;;;;;;;15.53;41.13;94017.72;4920966;29;20470;-85
2022/01/27 04:08:04;;;;;;;6.78;5.78;;;;;;;15.59;40.99;94022.00;4920625;28;20043;-85
2022/01/27 04:10:29;;;;;;;6.30;5.30;;;;;;;15.56;41.12;94019.50;4935887;28;20256;-85
2022/01/27 04:12:55;;;;;;;8.13;5.40;;;;;;;15.55;41.35;94001.63;4920402;29;20085;-85
2022/01/27 04:15:20;;;;;;;6.90;5.43;;;;;;;15.53;41.27;93988.47;4935417;28;20098;-85
2022/01/27 04:17:45;;;;;;;6.68;5.03;;;;;;;15.59;41.21;93978.41;4923212;28;20039;-85
2022/01/27 04:20:11;;;;;;;6.78;5.53;;;;;;;15.59;41.11;93983.84;4900679;29;20411;-85
2022/01/27 04:22:36;;;;;;;7.55;5.60;;;;;;;15.52;41.21;93986.22;4916916;29;20526;-85
2022/01/27 04:25:02;;;;;;;7.05;5.30;;;;;;;15.51;41.33;93998.34;4916326;29;20048;-85
2022/01/27 04:27:32;;;;;;;7.55;5.47;;;;;;;15.52;41.48;94008.78;4934082;29;20118;-85
2022/01/27 04:29:57;;;;;;;6.80;5.07;;;;;;;15.52;41.69;93992.44;4932603;29;20103;-85
2022/01/27 04:32:29;;;;;;;6.68;5.57;;;;;;;15.47;41.23;93995.09;4932847;29;20416;-85
2022/01/27 04:35:00;;;;;;;6.68;5.50;;;;;;;15.49;41.57;93987.94;4916299;29;20082;-85
2022/01/27 04:37:26;;;;;;;;;;;;;;;15.50;41.36;93981.25;4901703;29;20045;-85
2022/01/27 04:40:01;;;;;;;6.90;4.95;;;;;;;15.51;41.40;93987.47;4917055;29;19961;-85
2022/01/27 04:42:40;;;;;;;5.93;4.82;;;;;;;15.50;41.28;93975.81;4931805;29;20035;-85
2022/01/27 04:45:08;;;;;;;6.38;4.55;;;;;;;15.49;41.24;93979.75;4916348;29;20043;-86
2022/01/27 04:47:39;;;;;;;7.20;5.63;;;;;;;15.52;41.06;93978.06;4933447;29;20479;-86
2022/01/27 04:50:05;;;;;;;5.85;4.90;;;;;;;15.52;41.29;93980.78;4931503;28;20091;-85
2022/01/27 04:52:34;;;;;;;6.47;5.05;;;;;;;15.50;41.16;93980.50;4926219;28;20469;-84
2022/01/27 04:55:06;;;;;;;7.22;5.47;;;;;;;15.54;40.96;93986.50;4935775;28;20039;-85
2022/01/27 04:57:31;;;;;;;6.53;5.15;;;;;;;15.53;41.19;93993.94;4935980;28;20063;-85
2022/01/27 04:59:57;;;;;;;5.75;4.82;;;;;;;15.52;41.28;93986.97;4935477;28;20031;-85
2022/01/27 05:02:36;;;;;;;5.00;4.25;;;;;;;15.52;41.37;93986.97;4918960;28;20042;-85
2022/01/27 05:05:02;;;;;;;5.57;4.97;;;;;;;15.53;41.34;93987.72;4931300;28;20054;-85
2022/01/27 05:07:28;;;;;;;6.93;5.28;;;;;;;15.56;41.30;93965.00;4916428;29;20043;-86
2022/01/27 05:09:59;;;;;;;6.82;5.47;;;;;;;15.55;41.53;93968.94;4947694;28;20048;-85
2022/01/27 05:14:53;;;;;;;7.05;4.80;;;;;;;15.55;41.27;93964.22;4932007;28;20031;-85
2022/01/27 05:17:19;;;;;;;5.95;5.10;;;;;;;15.56;41.12;93962.28;4921444;28;20500;-85
2022/01/27 05:19:47;;;;;;;6.03;4.75;;;;;;;15.53;41.21;93966.69;4913247;29;20047;-85
2022/01/27 05:22:13;;;;;;;7.95;4.72;;;;;;;15.61;41.66;93958.84;4893021;29;20057;-85
2022/01/27 05:24:38;;;;;;;5.72;4.63;;;;;;;15.56;41.27;93957.59;4925358;29;20039;-84
2022/01/27 05:27:04;;;;;;;7.10;4.60;;;;;;;15.57;41.61;93963.78;4947292;28;20110;-85
2022/01/27 05:29:29;;;;;;;5.43;4.53;;;;;;;15.54;41.13;93960.00;4915946;29;20038;-84
2022/01/27 05:31:55;;;;;;;45.95;31.60;;;;;;;15.61;41.12;93959.59;4944413;28;20044;-84
2022/01/27 05:34:20;;;;;;;49.17;35.13;;;;;;;15.65;41.08;93946.53;4897649;29;20092;-83
2022/01/27 05:36:46;;;;;;;13.20;7.80;;;;;;;15.62;41.13;93952.19;4879084;29;20048;-85
2022/01/27 05:39:12;;;;;;;25.20;11.05;;;;;;;15.66;41.10;93950.00;4894887;29;20515;-86
2022/01/27 05:41:37;;;;;;;29.50;18.40;;;;;;;15.71;41.40;93971.88;4896401;29;20040;-83
2022/01/27 05:44:03;;;;;;;21.60;12.27;;;;;;;15.68;40.98;93972.81;4878639;29;20136;-84
2022/01/27 05:46:29;;;;;;;12.05;7.32;;;;;;;15.73;41.17;93965.94;4890022;29;20040;-85
2022/01/27 05:48:54;;;;;;;14.50;8.48;;;;;;;15.70;40.83;93967.66;4908827;29;20072;-89
2022/01/27 05:51:20;;;;;;;13.10;8.30;;;;;;;15.66;41.14;93971.81;4898540;28;20125;-89
2022/01/27 05:53:45;;;;;;;11.70;7.43;;;;;;;15.66;40.88;93961.66;4918997;28;20088;-87
2022/01/27 05:56:11;;;;;;;12.20;7.72;;;;;;;15.65;41.12;93945.78;4896837;28;20604;-87
2022/01/27 05:58:39;;;;;;;35.92;16.38;;;;;;;15.64;41.31;93957.91;4877752;29;20400;-87
2022/01/27 06:01:05;;;;;;;26.70;13.25;;;;;;;15.76;40.81;93943.19;4908362;29;20044;-86
2022/01/27 06:03:30;;;;;;;41.00;15.35;;;;;;;15.69;40.88;93940.88;4911851;29;20052;-86
2022/01/27 06:05:56;;;;;;;104.63;27.40;;;;;;;15.60;38.64;93941.00;4902935;29;20503;-86
2022/01/27 06:08:21;;;;;;;78.90;24.92;;;;;;;15.38;37.34;93939.50;4896837;28;20121;-86
2022/01/27 06:10:46;;;;;;;53.65;21.38;;;;;;;15.33;36.85;93942.94;4915091;29;20071;-90
2022/01/27 06:13:12;;;;;;;65.15;23.45;;;;;;;15.38;37.17;93949.66;4914377;28;20059;-90
2022/01/27 06:15:37;;;;;;;51.78;24.63;;;;;;;15.35;37.01;93942.47;4907659;29;20403;-89
2022/01/27 06:18:03;;;;;;;70.35;24.30;;;;;;;15.42;36.72;93936.56;4912174;28;20071;-89
2022/01/27 06:20:29;;;;;;;168.70;47.40;;;;;;;15.40;36.57;93937.06;4876502;29;20070;-87
2022/01/27 06:22:57;;;;;;;180.68;43.55;;;;;;;15.38;37.03;93936.03;4908624;29;20111;-88
2022/01/27 06:25:22;;;;;;;135.20;44.17;;;;;;;15.41;37.92;93935.06;4918002;28;20044;-88
2022/01/27 06:27:48;;;;;;;67.80;29.58;;;;;;;15.30;37.69;93927.53;4898185;29;20048;-87
2022/01/27 06:30:13;;;;;;;61.15;26.38;;;;;;;15.26;36.55;93937.13;4911833;28;20036;-88
2022/01/27 06:32:39;;;;;;;68.03;32.63;;;;;;;15.30;36.09;93927.53;4911181;29;20415;-87
2022/01/27 06:35:06;;;;;;;51.05;26.70;;;;;;;15.20;34.54;93930.88;4882899;29;20060;-87
2022/01/27 06:37:31;;;;;;;73.72;30.25;;;;;;;15.11;35.59;93933.75;4907854;28;20120;-87
2022/01/27 06:39:57;;;;;;;177.88;54.65;;;;;;;15.15;35.01;93937.03;4911573;29;20035;-88
2022/01/27 06:42:23;;;;;;;84.15;37.72;;;;;;;15.17;35.34;93932.56;4918080;28;20051;-89
2022/01/27 06:44:49;;;;;;;223.98;74.25;;;;;;;15.25;36.46;93943.81;4914397;28;20083;-90
2022/01/27 06:47:14;;;;;;;202.73;65.80;;;;;;;15.27;37.08;93936.66;4898709;28;20040;-89
2022/01/27 06:49:39;;;;;;;115.57;44.63;;;;;;;15.38;38.38;93928.59;4901402;29;20062;-89
2022/01/27 06:52:06;;;;;;;104.32;47.85;;;;;;;15.32;38.69;93919.63;4923405;28;20102;-86
2022/01/27 06:54:32;;;;;;;107.50;53.03;;;;;;;15.36;38.66;93922.16;4926867;28;20040;-88
2022/01/27 06:56:57;;;;;;;120.88;57.80;;;;;;;15.36;38.74;93914.75;4899446;29;20895;-89
2022/01/27 06:59:24;;;;;;;116.32;59.67;;;;;;;15.35;37.73;93923.38;4931788;28;20039;-88
2022/01/27 07:01:49;;;;;;;121.10;57.83;;;;;;;15.32;37.57;93927.06;4898394;29;20048;-87
2022/01/27 07:04:15;;;;;;;135.05;62.63;;;;;;;15.42;37.82;93925.69;4933187;28;20059;-86
2022/01/27 07:06:40;;;;;;;115.90;57.83;;;;;;;15.50;38.08;93920.56;4901164;29;20036;-86
2022/01/27 07:09:05;;;;;;;171.93;97.72;;;;;;;15.50;38.53;93929.50;4922801;28;20047;-86
2022/01/27 07:11:31;;;;;;;130.52;54.72;;;;;;;15.46;38.70;93930.91;4937479;28;20285;-87
2022/01/27 07:13:57;;;;;;;111.60;54.65;;;;;;;15.39;39.00;93916.47;4902448;29;20048;-85
2022/01/27 07:16:22;;;;;;;111.85;56.17;;;;;;;15.42;38.90;93925.69;4919574;28;20052;-86
2022/01/27 07:18:53;;;;;;;99.38;51.95;;;;;;;15.47;38.88;93929.69;4920044;28;20044;-84
2022/01/27 07:21:19;;;;;;;108.28;52.95;;;;;;;15.51;38.62;93932.97;4913885;28;20068;-83
2022/01/27 07:23:46;;;;;;;75.25;40.35;;;;;;;15.50;38.44;93934.94;4882904;29;20036;-84
2022/01/27 07:26:11;;;;;;;96.13;48.35;;;;;;;15.42;38.49;93934.59;4901045;29;20108;-84
2022/01/27 07:28:37;;;;;;;87.00;45.08;;;;;;;15.41;38.40;93935.81;4891599;29;20059;-86
2022/01/27 07:31:03;;;;;;;57.00;28.23;;;;;;;15.36;35.23;93933.81;4908680;28;20556;-87
2022/01/27 07:33:28;;;;;;;48.78;26.23;;;;;;;15.28;35.09;93943.59;4910451;28;20324;-87
2022/01/27 07:35:54;;;;;;;1206.95;133.30;;;;;;;15.26;34.71;93943.34;4914121;29;20036;-86
2022/01/27 07:38:19;;;;;;;289.30;41.92;;;;;;;15.30;34.73;93935.72;4910057;28;20460;-87
2022/01/27 07:40:44;;;;;;;77.75;28.00;;;;;;;15.15;34.62;93942.47;4910156;29;20487;-85
2022/01/27 07:43:10;;;;;;;59.70;27.13;;;;;;;15.17;35.22;93931.81;4907921;28;20127;-86
2022/01/27 07:45:36;;;;;;;680.60;84.85;;;;;;;15.31;34.92;93937.22;4893996;29;20493;-86
2022/01/27 07:48:01;;;;;;;887.45;116.90;;;;;;;15.23;34.93;93933.38;4908792;29;20045;-87
2022/01/27 07:50:29;;;;;;;715.25;80.53;;;;;;;15.21;35.28;93924.19;4906411;29;20122;-87
2022/01/27 07:52:56;;;;;;;308.65;47.72;;;;;;;15.29;35.41;93936.94;4916416;28;20039;-86
2022/01/27 07:55:22;;;;;;;214.18;45.28;;;;;;;15.28;36.15;93934.69;4904648;29;21096;-87
2022/01/27 07:57:47;;;;;;;130.57;39.13;;;;;;;15.33;37.02;93929.31;4895842;29;20111;-85
2022/01/27 08:00:14;;;;;;;106.65;36.22;;;;;;;15.31;36.46;93936.47;4913114;28;20448;-85
2022/01/27 08:02:40;;;;;;;81.28;34.88;;;;;;;15.25;36.52;93930.19;4913093;29;20302;-87
2022/01/27 08:05:05;;;;;;;92.28;35.63;;;;;;;15.26;36.09;93927.00;4910547;29;20771;-85
2022/01/27 08:07:31;;;;;;;121.80;45.33;;;;;;;15.34;36.25;93921.88;4905129;29;20045;-86
2022/01/27 08:09:56;;;;;;;114.57;46.20;;;;;;;15.36;36.48;93919.44;4909772;29;20127;-85
2022/01/27 08:12:22;;;;;;;115.45;50.42;;;;;;;15.38;37.06;93922.41;4900931;28;20736;-86
2022/01/27 08:14:47;;;;;;;111.32;48.13;;;;;;;15.45;37.51;93924.72;4919193;28;20432;-85
2022/01/27 08:17:14;;;;;;;135.65;55.72;;;;;;;15.34;37.53;93913.72;4931420;28;20074;-85
2022/01/27 08:19:39;;;;;;;119.15;51.83;;;;;;;15.44;37.53;93913.06;4939622;28;20048;-86
2022/01/27 08:22:05;;;;;;;148.18;62.05;;;;;;;15.44;37.65;93907.63;4901451;29;20124;-88
2022/01/27 08:24:30;;;;;;;209.55;79.80;;;;;;;15.43;37.87;93903.41;4903066;29;20047;-86
2022/01/27 08:27:02;;;;;;;168.77;74.20;;;;;;;15.41;37.95;93900.41;4910432;29;20040;-86
2022/01/27 08:29:35;;;;;;;153.88;72.45;;;;;;;15.44;37.80;93888.56;4901067;29;20076;-85
2022/01/27 08:32:02;;;;;;;165.52;74.53;;;;;;;15.47;37.89;93884.13;4914214;28;20056;-84
2022/01/27 08:34:36;;;;;;;150.80;74.13;;;;;;;15.51;38.01;93892.84;4917358;28;20059;-86
2022/01/27 08:37:21;;;;;;;173.80;77.63;;;;;;;15.55;37.82;93884.47;4912941;29;20058;-87
2022/01/27 08:39:47;;;;;;;154.10;71.25;;;;;;;15.52;38.12;93883.44;4895719;29;20037;-88
2022/01/27 08:42:12;;;;;;;183.70;89.60;;;;;;;15.56;37.92;93894.16;4893648;28;20095;-86
2022/01/27 08:44:38;;;;;;;96.75;48.80;;;;;;;15.41;34.91;93881.34;4914953;28;20047;-86
2022/01/27 08:47:04;;;;;;;85.88;45.78;;;;;;;15.33;34.15;93880.28;4897965;28;20123;-86
2022/01/27 08:49:29;;;;;;;102.53;48.30;;;;;;;15.29;34.17;93879.00;4910772;29;20032;-87
2022/01/27 08:51:55;;;;;;;107.70;48.47;;;;;;;15.32;34.14;93889.69;4906047;29;20059;-86
2022/01/27 08:54:20;;;;;;;76.65;41.63;;;;;;;15.31;34.20;93904.53;4913080;28;20045;-86
2022/01/27 08:56:47;;;;;;;109.18;53.53;;;;;;;15.28;34.51;93912.91;4914121;29;20032;-85
2022/01/27 08:59:12;;;;;;;128.45;64.68;;;;;;;15.44;35.14;93901.44;4913260;28;20522;-87
2022/01/27 09:01:38;;;;;;;154.32;61.45;;;;;;;15.45;35.40;93897.47;4913832;29;20040;-85
2022/01/27 09:04:04;;;;;;;184.38;81.00;;;;;;;15.51;36.04;93905.72;4919312;28;20040;-84
2022/01/27 09:06:29;;;;;;;193.95;88.88;;;;;;;15.47;36.61;93897.75;4928385;28;20036;-84
2022/01/27 09:08:55;;;;;;;155.52;72.88;;;;;;;15.46;36.94;93893.53;4909963;29;20079;-84
2022/01/27 09:11:20;;;;;;;126.72;62.20;;;;;;;15.41;36.24;93891.50;4898784;29;20032;-84
2022/01/27 09:13:52;;;;;;;132.00;64.45;;;;;;;15.42;36.24;93895.72;4906290;29;20435;-89
2022/01/27 09:16:18;;;;;;;130.70;64.43;;;;;;;15.43;36.38;93894.47;4946449;28;20110;-89
2022/01/27 09:18:45;;;;;;;114.57;59.95;;;;;;;15.42;36.41;93899.19;4924912;28;20044;-89
2022/01/27 09:21:15;;;;;;;144.40;65.03;;;;;;;15.48;36.82;93907.44;4886062;29;20520;-87
2022/01/27 09:23:41;;;;;;;189.02;73.18;;;;;;;15.45;37.20;93900.19;4927451;28;20043;-88
2022/01/27 09:26:10;;;;;;;146.13;65.97;;;;;;;15.48;37.28;93909.41;4933792;28;20055;-87
2022/01/27 09:28:35;;;;;;;86.57;45.72;;;;;;;15.47;36.19;93914.09;4902094;29;20039;-85
2022/01/27 09:31:01;;;;;;;73.75;38.97;;;;;;;15.43;35.41;93914.31;4916628;29;20051;-88
2022/01/27 09:33:27;;;;;;;72.30;41.55;;;;;;;15.46;35.36;93909.13;4902033;29;20172;-89
2022/01/27 09:35:53;;;;;;;87.95;47.08;;;;;;;15.47;35.29;93899.72;4902065;29;20044;-86
2022/01/27 09:38:18;;;;;;;103.20;55.95;;;;;;;15.48;35.92;93910.16;4917306;29;20050;-87
2022/01/27 09:40:47;;;;;;;127.68;59.85;;;;;;;15.49;36.64;93895.28;4917010;29;20390;-88
2022/01/27 09:43:13;;;;;;;137.38;74.35;;;;;;;15.55;36.83;93885.22;4924543;28;20040;-86
2022/01/27 09:45:39;;;;;;;156.27;86.28;;;;;;;15.56;36.68;93892.19;4915119;29;20478;-88
2022/01/27 09:48:14;;;;;;;169.05;92.80;;;;;;;15.53;37.00;93884.19;4915624;28;20052;-86
2022/01/27 09:53:12;;;;;;;250.70;133.30;;;;;;;15.59;37.03;93868.69;4905097;28;20036;-86
2022/01/27 09:55:37;;;;;;;234.20;126.57;;;;;;;15.60;37.17;93872.88;4912400;29;20139;-89
2022/01/27 09:58:03;;;;;;;220.23;120.85;;;;;;;15.62;36.98;93848.63;4905365;29;20206;-87
2022/01/27 10:00:29;;;;;;;253.38;139.50;;;;;;;15.64;36.67;93843.44;4903315;29;20051;-87
2022/01/27 10:03:02;;;;;;;243.23;139.32;;;;;;;15.68;37.05;93849.44;4918974;29;20035;-88
2022/01/27 10:05:28;;;;;;;278.10;157.18;;;;;;;15.63;37.06;93845.41;4896676;29;20131;-90
2022/01/27 10:08:00;;;;;;;249.10;139.25;;;;;;;15.67;37.08;93851.41;4922729;28;20048;-87
2022/01/27 10:10:26;;;;;;;266.50;155.30;;;;;;;15.71;37.16;93851.19;4915985;28;20068;-86
2022/01/27 10:12:54;;;;;;;246.23;137.35;;;;;;;15.74;36.63;93842.06;4913931;29;20040;-86
2022/01/27 10:15:21;;;;;;;249.55;147.63;;;;;;;15.68;36.97;93852.16;4914592;28;20079;-88
2022/01/27 10:18:10;;;;;;;256.65;152.75;;;;;;;15.71;36.63;93854.66;4912333;29;20044;-87
2022/01/27 10:20:36;;;;;;;130.85;80.60;;;;;;;15.65;34.42;93850.38;4896753;29;20048;-89
2022/01/27 10:23:22;;;;;;;96.32;52.58;;;;;;;15.47;33.53;93843.25;4898904;29;20134;-89
2022/01/27 10:25:53;;;;;;;130.13;55.28;;;;;;;15.35;32.90;93844.41;4910875;29;20043;-87
2022/01/27 10:31:08;;;;;;;112.13;59.97;;;;;;;15.43;32.98;93840.00;4908837;28;20059;-88
2022/01/27 10:33:45;;;;;;;160.45;70.55;;;;;;;15.50;33.79;93827.94;4912244;29;20040;-88
2022/01/27 10:36:29;;;;;;;145.88;83.13;;;;;;;15.53;34.53;93835.16;4930306;28;20052;-88
2022/01/27 10:38:58;;;;;;;164.32;94.00;;;;;;;15.52;35.24;93850.75;4912408;29;20040;-88
2022/01/27 10:41:27;;;;;;;196.00;111.35;;;;;;;15.63;36.01;93836.50;4913998;28;20068;-88
2022/01/27 10:44:16;;;;;;;190.05;110.78;;;;;;;15.58;35.95;93829.78;4898540;29;20502;-86
2022/01/27 10:46:59;;;;;;;218.82;128.50;;;;;;;15.62;36.34;93824.84;4895383;29;20066;-88
2022/01/27 10:49:29;;;;;;;192.60;115.38;;;;;;;15.66;35.93;93817.19;4898288;29;20064;-89
2022/01/27 10:51:56;;;;;;;177.95;110.63;;;;;;;15.68;36.11;93830.34;4914852;29;20047;-87
2022/01/27 10:54:35;;;;;;;220.60;134.82;;;;;;;15.64;36.11;93825.13;4922490;28;20036;-88
2022/01/27 10:57:03;;;;;;;208.38;127.90;;;;;;;15.71;36.02;93818.47;4913051;29;20044;-88
2022/01/27 10:59:32;;;;;;;239.35;149.55;;;;;;;15.74;36.17;93812.81;4898620;29;20095;-90
2022/01/27 11:01:58;;;;;;;326.50;173.90;;;;;;;15.84;37.09;93821.56;4895273;29;20109;-88
2022/01/27 11:04:35;;;;;;;388.88;183.48;;;;;;;15.91;38.42;93814.91;4914768;28;20119;-90
2022/01/27 11:07:02;;;;;;;266.33;157.93;;;;;;;15.93;36.98;93821.38;4907486;29;20139;-89
2022/01/27 11:09:33;;;;;;;242.55;154.65;;;;;;;15.91;36.61;93809.47;4907107;29;20044;-88
2022/01/27 11:11:59;;;;;;;260.95;174.07;;;;;;;15.94;36.50;93817.44;4880624;29;20564;-87
2022/01/27 11:14:25;;;;;;;230.70;146.27;;;;;;;16.05;36.87;93808.56;4910212;28;20044;-89
2022/01/27 11:16:56;;;;;;;232.95;151.05;;;;;;;16.04;36.47;93816.00;4914841;28;20040;-88
2022/01/27 11:22:22;;;;;;;255.27;156.75;;;;;;;16.02;36.43;93804.13;4914505;29;20071;-88
2022/01/27 11:27:28;;;;;;;230.77;146.10;;;;;;;15.97;36.57;93804.81;4914720;28;20043;-85
2022/01/27 11:30:16;;;;;;;211.85;138.48;;;;;;;15.97;36.50;93793.91;4887978;29;20056;-87
2022/01/27 11:33:06;;;;;;;222.95;144.07;;;;;;;16.00;36.70;93787.47;4927604;28;20139;-88
2022/01/27 11:35:32;;;;;;;214.30;139.60;;;;;;;15.96;36.58;93792.41;4897314;29;20040;-87
2022/01/27 11:38:00;;;;;;;192.35;124.80;;;;;;;16.04;37.06;93790.72;4903737;29;20051;-88
2022/01/27 11:40:46;;;;;;;196.27;127.82;;;;;;;15.96;36.84;93795.13;4912031;29;20040;-88
2022/01/27 11:43:13;;;;;;;190.07;128.00;;;;;;;16.05;36.49;93795.69;4894534;29;20044;-86
2022/01/27 11:45:47;;;;;;;187.65;122.78;;;;;;;15.99;36.56;93784.00;4911819;29;20039;-87
2022/01/27 11:48:17;;;;;;;149.00;101.85;;;;;;;16.12;36.51;93778.13;4914224;28;20043;-86
2022/01/27 11:50:51;;;;;;;181.55;110.38;;;;;;;16.09;37.11;93782.56;4920337;28;20067;-86
2022/01/27 11:53:35;;;;;;;130.20;92.45;;;;;;;16.04;36.40;93775.09;4906118;29;20559;-86
2022/01/27 11:56:08;;;;;;;136.05;90.82;;;;;;;15.96;36.53;93773.31;4909302;28;20064;-86
2022/01/27 11:58:45;;;;;;;148.20;101.38;;;;;;;15.91;36.75;93763.13;4900081;29;20048;-88
2022/01/27 12:01:19;;;;;;;155.50;106.40;;;;;;;15.96;36.80;93763.16;4910084;29;20043;-85
2022/01/27 12:04:06;;;;;;;188.20;131.30;;;;;;;15.94;36.67;93756.69;4910444;29;20103;-87
2022/01/27 12:06:43;;;;;;;186.55;128.20;;;;;;;15.98;36.75;93752.53;4924307;28;20051;-88
2022/01/27 12:09:21;;;;;;;225.77;162.32;;;;;;;15.99;36.82;93756.00;4927132;28;20197;-86